sensor_id;sensor_type;location;lat;lon;timestamp;pressure;altitude;pressure_sealevel;temperature;humidity
22582;BME280;47125;48.542;9.052;2023-03-13T00:06:43;95556.00;;;10.01;65.41
22582;BME280;47125;48.542;9.052;2023-03-13T00:16:47;95549.16;;;10.05;65.48
22582;BME280;47125;48.542;9.052;2023-03-13T00:26:50;95556.09;;;10.06;65.02
22582;BME280;47125;48.542;9.052;2023-03-13T00:36:54;95552.13;;;10.09;65.26
22582;BME280;47125;48.542;9.052;2023-03-13T00:46:57;95552.78;;;10.16;64.97
22582;BME280;47125;48.542;9.052;2023-03-13T00:57:00;95546.09;;;10.13;65.38
22582;BME280;47125;48.542;9.052;2023-03-13T01:07:03;95541.06;;;10.17;65.49
22582;BME280;47125;48.542;9.052;2023-03-13T01:17:07;95524.03;;;10.18;65.20
22582;BME280;47125;48.542;9.052;2023-03-13T01:27:09;95512.75;;;10.16;65.56
22582;BME280;47125;48.542;9.052;2023-03-13T01:37:13;95506.16;;;10.18;65.09
22582;BME280;47125;48.542;9.052;2023-03-13T01:47:15;95483.50;;;10.21;65.19
22582;BME280;47125;48.542;9.052;2023-03-13T01:57:20;95448.81;;;10.21;65.41
22582;BME280;47125;48.542;9.052;2023-03-13T02:07:25;95446.47;;;10.24;65.51
22582;BME280;47125;48.542;9.052;2023-03-13T02:17:30;95430.88;;;10.16;65.82
22582;BME280;47125;48.542;9.052;2023-03-13T02:27:36;95433.41;;;10.28;66.09
22582;BME280;47125;48.542;9.052;2023-03-13T02:37:38;95416.41;;;10.34;67.59
22582;BME280;47125;48.542;9.052;2023-03-13T02:47:44;95386.41;;;10.48;68.44
22582;BME280;47125;48.542;9.052;2023-03-13T02:57:47;95361.13;;;10.56;68.75
22582;BME280;47125;48.542;9.052;2023-03-13T03:07:50;95350.09;;;10.74;69.31
22582;BME280;47125;48.542;9.052;2023-03-13T03:17:53;95341.06;;;10.80;69.76
22582;BME280;47125;48.542;9.052;2023-03-13T03:27:57;95321.38;;;10.91;69.27
22582;BME280;47125;48.542;9.052;2023-03-13T03:37:59;95317.38;;;10.94;69.61
22582;BME280;47125;48.542;9.052;2023-03-13T03:48:03;95327.53;;;10.92;70.28
22582;BME280;47125;48.542;9.052;2023-03-13T03:58:06;95321.38;;;10.91;70.69
22582;BME280;47125;48.542;9.052;2023-03-13T04:08:10;95320.34;;;10.97;70.96
22582;BME280;47125;48.542;9.052;2023-03-13T04:18:12;95326.28;;;11.04;71.96
22582;BME280;47125;48.542;9.052;2023-03-13T04:28:18;95321.25;;;11.08;71.89
22582;BME280;47125;48.542;9.052;2023-03-13T04:38:20;95311.19;;;11.20;73.11
22582;BME280;47125;48.542;9.052;2023-03-13T04:48:24;95298.38;;;11.27;74.49
22582;BME280;47125;48.542;9.052;2023-03-13T04:58:26;95297.31;;;11.28;75.33
22582;BME280;47125;48.542;9.052;2023-03-13T05:08:30;95290.56;;;11.21;75.70
22582;BME280;47125;48.542;9.052;2023-03-13T05:18:33;95293.75;;;11.18;75.06
22582;BME280;47125;48.542;9.052;2023-03-13T05:28:37;95293.22;;;11.16;74.05
22582;BME280;47125;48.542;9.052;2023-03-13T05:38:40;95289.22;;;11.18;73.36
22582;BME280;47125;48.542;9.052;2023-03-13T05:48:43;95289.00;;;11.20;72.93
22582;BME280;47125;48.542;9.052;2023-03-13T05:58:47;95283.41;;;11.26;72.95
22582;BME280;47125;48.542;9.052;2023-03-13T06:08:51;95277.81;;;11.33;73.94
22582;BME280;47125;48.542;9.052;2023-03-13T06:18:54;95277.66;;;11.44;74.31
22582;BME280;47125;48.542;9.052;2023-03-13T06:28:58;95286.19;;;11.46;74.68
22582;BME280;47125;48.542;9.052;2023-03-13T06:39:00;95287.03;;;11.52;75.55
22582;BME280;47125;48.542;9.052;2023-03-13T06:49:04;95303.66;;;11.59;76.72
22582;BME280;47125;48.542;9.052;2023-03-13T06:59:06;95295.97;;;11.78;78.23
22582;BME280;47125;48.542;9.052;2023-03-13T07:09:10;95288.00;;;11.88;78.57
22582;BME280;47125;48.542;9.052;2023-03-13T07:19:13;95300.91;;;12.01;79.49
22582;BME280;47125;48.542;9.052;2023-03-13T07:29:17;95300.66;;;12.12;79.96
22582;BME280;47125;48.542;9.052;2023-03-13T07:39:20;95305.25;;;12.32;78.93
22582;BME280;47125;48.542;9.052;2023-03-13T07:49:24;95293.53;;;12.48;78.22
22582;BME280;47125;48.542;9.052;2023-03-13T07:59:26;95271.59;;;12.61;77.76
22582;BME280;47125;48.542;9.052;2023-03-13T08:09:32;95283.09;;;12.67;77.93
22582;BME280;47125;48.542;9.052;2023-03-13T08:19:34;95247.19;;;12.78;77.31
22582;BME280;47125;48.542;9.052;2023-03-13T08:29:40;95226.00;;;12.97;77.13
22582;BME280;47125;48.542;9.052;2023-03-13T08:39:42;95225.19;;;13.06;76.32
22582;BME280;47125;48.542;9.052;2023-03-13T08:49:47;95205.88;;;13.19;75.76
22582;BME280;47125;48.542;9.052;2023-03-13T08:59:49;95239.63;;;13.36;75.09
22582;BME280;47125;48.542;9.052;2023-03-13T09:09:53;95220.25;;;13.54;74.08
22582;BME280;47125;48.542;9.052;2023-03-13T09:19:56;95212.94;;;13.69;73.25
22582;BME280;47125;48.542;9.052;2023-03-13T09:30:02;95225.03;;;14.16;71.80
22582;BME280;47125;48.542;9.052;2023-03-13T09:40:05;95232.03;;;14.56;69.45
22582;BME280;47125;48.542;9.052;2023-03-13T09:50:11;95237.63;;;14.64;67.54
22582;BME280;47125;48.542;9.052;2023-03-13T10:00:17;95245.69;;;14.93;65.41
22582;BME280;47125;48.542;9.052;2023-03-13T10:10:23;95228.94;;;15.30;63.88
22582;BME280;47125;48.542;9.052;2023-03-13T10:20:32;95224.78;;;15.42;62.64
22582;BME280;47125;48.542;9.052;2023-03-13T10:30:36;95205.69;;;15.68;61.35
22582;BME280;47125;48.542;9.052;2023-03-13T10:40:39;95175.66;;;15.98;60.89
22582;BME280;47125;48.542;9.052;2023-03-13T10:50:44;95162.75;;;16.32;58.74
22582;BME280;47125;48.542;9.052;2023-03-13T11:00:47;95131.69;;;16.21;59.49
22582;BME280;47125;48.542;9.052;2023-03-13T11:10:52;95108.84;;;16.19;60.10
22582;BME280;47125;48.542;9.052;2023-03-13T11:20:55;95108.38;;;16.30;60.27
22582;BME280;47125;48.542;9.052;2023-03-13T11:31:20;95071.38;;;16.95;58.66
22582;BME280;47125;48.542;9.052;2023-03-13T11:41:30;95047.34;;;17.62;56.70
22582;BME280;47125;48.542;9.052;2023-03-13T11:51:41;95015.31;;;18.66;52.53
22582;BME280;47125;48.542;9.052;2023-03-13T12:01:52;94989.28;;;19.44;48.86
22582;BME280;47125;48.542;9.052;2023-03-13T12:11:58;94961.69;;;20.11;48.20
22582;BME280;47125;48.542;9.052;2023-03-13T12:22:07;94928.09;;;20.87;45.72
22582;BME280;47125;48.542;9.052;2023-03-13T12:32:17;94913.28;;;21.14;44.04
22582;BME280;47125;48.542;9.052;2023-03-13T12:42:34;94861.19;;;21.54;43.21
22582;BME280;47125;48.542;9.052;2023-03-13T12:52:56;94847.56;;;22.19;42.79
22582;BME280;47125;48.542;9.052;2023-03-13T13:03:05;94805.44;;;22.49;40.76
22582;BME280;47125;48.542;9.052;2023-03-13T13:13:25;94788.22;;;21.76;40.83
22582;BME280;47125;48.542;9.052;2023-03-13T13:23:32;94756.22;;;22.18;40.50
22582;BME280;47125;48.542;9.052;2023-03-13T13:33:37;94735.53;;;21.45;41.22
22582;BME280;47125;48.542;9.052;2023-03-13T13:43:41;94734.47;;;20.83;42.55
22582;BME280;47125;48.542;9.052;2023-03-13T13:53:46;94700.19;;;20.58;43.87
22582;BME280;47125;48.542;9.052;2023-03-13T14:03:50;94691.31;;;21.11;43.59
22582;BME280;47125;48.542;9.052;2023-03-13T14:14:08;94672.69;;;20.68;43.95
22582;BME280;47125;48.542;9.052;2023-03-13T14:24:12;94661.97;;;20.51;44.70
22582;BME280;47125;48.542;9.052;2023-03-13T14:34:15;94639.94;;;20.53;44.53
22582;BME280;47125;48.542;9.052;2023-03-13T14:44:20;94618.81;;;21.12;43.61
22582;BME280;47125;48.542;9.052;2023-03-13T14:54:27;94592.47;;;20.92;43.74
22582;BME280;47125;48.542;9.052;2023-03-13T15:04:49;94579.47;;;20.52;44.87
22582;BME280;47125;48.542;9.052;2023-03-13T15:14:53;94551.66;;;20.22;45.54
22582;BME280;47125;48.542;9.052;2023-03-13T15:24:56;94520.47;;;19.96;46.03
22582;BME280;47125;48.542;9.052;2023-03-13T15:35:16;94495.06;;;19.88;46.56
22582;BME280;47125;48.542;9.052;2023-03-13T15:45:22;94462.59;;;20.33;46.00
22582;BME280;47125;48.542;9.052;2023-03-13T15:55:26;94445.78;;;20.19;45.89
22582;BME280;47125;48.542;9.052;2023-03-13T16:05:30;94434.84;;;20.15;45.99
22582;BME280;47125;48.542;9.052;2023-03-13T16:15:34;94405.81;;;20.16;45.81
22582;BME280;47125;48.542;9.052;2023-03-13T16:25:36;94383.88;;;19.97;45.94
22582;BME280;47125;48.542;9.052;2023-03-13T16:35:40;94348.88;;;19.59;47.29
22582;BME280;47125;48.542;9.052;2023-03-13T16:45:43;94332.41;;;19.31;47.87
22582;BME280;47125;48.542;9.052;2023-03-13T16:55:48;94313.00;;;19.08;48.74
22582;BME280;47125;48.542;9.052;2023-03-13T17:05:50;94302.66;;;18.90;49.03
22582;BME280;47125;48.542;9.052;2023-03-13T17:15:54;94294.66;;;18.73;49.25
22582;BME280;47125;48.542;9.052;2023-03-13T17:25:57;94288.47;;;18.51;49.73
22582;BME280;47125;48.542;9.052;2023-03-13T17:36:01;94287.53;;;18.39;50.00
22582;BME280;47125;48.542;9.052;2023-03-13T17:46:07;94248.94;;;18.38;49.78
22582;BME280;47125;48.542;9.052;2023-03-13T17:56:12;94221.09;;;18.17;50.46
22582;BME280;47125;48.542;9.052;2023-03-13T18:06:17;94188.69;;;17.88;51.37
22582;BME280;47125;48.542;9.052;2023-03-13T18:16:23;94178.28;;;17.78;51.01
22582;BME280;47125;48.542;9.052;2023-03-13T18:26:28;94152.34;;;17.56;52.15
22582;BME280;47125;48.542;9.052;2023-03-13T18:36:33;94181.75;;;17.40;53.02
22582;BME280;47125;48.542;9.052;2023-03-13T18:46:36;94397.38;;;15.36;76.77
22582;BME280;47125;48.542;9.052;2023-03-13T18:56:40;94285.88;;;15.20;76.39
22582;BME280;47125;48.542;9.052;2023-03-13T19:06:42;94194.97;;;14.92;78.02
22582;BME280;47125;48.542;9.052;2023-03-13T19:16:47;94215.69;;;14.69;79.79
22582;BME280;47125;48.542;9.052;2023-03-13T19:26:53;94223.00;;;14.55;81.26
22582;BME280;47125;48.542;9.052;2023-03-13T19:37:00;94232.63;;;14.33;82.39
22582;BME280;47125;48.542;9.052;2023-03-13T19:47:03;94296.38;;;14.42;83.83
22582;BME280;47125;48.542;9.052;2023-03-13T19:57:08;94547.00;;;14.05;87.71
22582;BME280;47125;48.542;9.052;2023-03-13T20:07:11;94509.25;;;13.32;92.49
22582;BME280;47125;48.542;9.052;2023-03-13T20:17:15;94561.72;;;13.38;91.97
22582;BME280;47125;48.542;9.052;2023-03-13T20:27:19;94651.22;;;12.65;89.17
22582;BME280;47125;48.542;9.052;2023-03-13T20:37:23;94717.09;;;11.94;85.24
22582;BME280;47125;48.542;9.052;2023-03-13T20:47:26;94659.16;;;11.79;82.92
22582;BME280;47125;48.542;9.052;2023-03-13T20:57:30;94686.16;;;11.78;84.25
22582;BME280;47125;48.542;9.052;2023-03-13T21:07:33;94688.53;;;11.84;83.84
22582;BME280;47125;48.542;9.052;2023-03-13T21:17:37;94686.06;;;11.39;86.17
22582;BME280;47125;48.542;9.052;2023-03-13T21:27:39;94665.28;;;11.26;89.08
22582;BME280;47125;48.542;9.052;2023-03-13T21:37:45;94650.59;;;11.23;90.62
22582;BME280;47125;48.542;9.052;2023-03-13T21:47:47;94594.31;;;11.04;89.85
22582;BME280;47125;48.542;9.052;2023-03-13T21:57:51;94572.56;;;11.26;89.54
22582;BME280;47125;48.542;9.052;2023-03-13T22:07:54;94538.72;;;11.06;91.27
22582;BME280;47125;48.542;9.052;2023-03-13T22:17:58;94489.50;;;11.18;90.84
22582;BME280;47125;48.542;9.052;2023-03-13T22:28:00;94511.00;;;11.36;91.10
22582;BME280;47125;48.542;9.052;2023-03-13T22:38:04;94426.22;;;11.47;89.47
22582;BME280;47125;48.542;9.052;2023-03-13T22:48:07;94465.13;;;11.24;89.58
22582;BME280;47125;48.542;9.052;2023-03-13T22:58:11;94525.22;;;11.32;90.79
22582;BME280;47125;48.542;9.052;2023-03-13T23:08:13;94557.53;;;11.35;90.56
22582;BME280;47125;48.542;9.052;2023-03-13T23:18:17;94586.50;;;11.13;91.25
22582;BME280;47125;48.542;9.052;2023-03-13T23:28:20;94517.50;;;10.81;92.25
22582;BME280;47125;48.542;9.052;2023-03-13T23:38:24;94526.34;;;10.67;94.47
22582;BME280;47125;48.542;9.052;2023-03-13T23:48:28;94538.41;;;10.59;95.98
22582;BME280;47125;48.542;9.052;2023-03-13T23:58:32;94560.75;;;10.73;93.56
